KLM86H EHAM-EGKK
Flight info
| Callsign | KLM86H |
|---|---|
| Flight time | 0h 48m |
| Altitude | 24000 |
| Route | IDRID L980 ABNED Z344 AMRIV Q63 ARREK Y4 TEBRA |
| Aircraft | B737/M-SDE2E3FGHIRWXY/LB1 |
Departure
| Time | 2026-05-07 10:50 |
|---|---|
| Airport | Amsterdam Airport Schiphol (EHAM) |
Arrival
| Time | 2026-05-07 11:38 |
|---|---|
| Airport | London Gatwick Airport (EGKK) |
| Time | Latitude | Longitude | Altitude | Speed | Heading |
|---|---|---|---|---|---|
| 2026-05-07 10:24 | 52.30898 | 4.77239 | -3 ft | 0 kts | 3° |
| 2026-05-07 10:37 | 52.30882 | 4.77237 | -3 ft | 2 kts | 4° |
| 2026-05-07 10:38 | 52.30866 | 4.77235 | -3 ft | 2 kts | 6° |
| 2026-05-07 10:38 | 52.30850 | 4.77229 | -3 ft | 2 kts | 41° |
| 2026-05-07 10:38 | 52.30845 | 4.77211 | -3 ft | 1 kts | 94° |
| 2026-05-07 10:38 | 52.30845 | 4.77207 | -3 ft | 0 kts | 94° |
| 2026-05-07 10:41 | 52.30844 | 4.77217 | -3 ft | 3 kts | 94° |
| 2026-05-07 10:41 | 52.30842 | 4.77291 | -3 ft | 9 kts | 94° |
| 2026-05-07 10:42 | 52.30838 | 4.77393 | -3 ft | 2 kts | 92° |
| 2026-05-07 10:42 | 52.30836 | 4.77432 | -3 ft | 5 kts | 102° |
| 2026-05-07 10:42 | 52.30821 | 4.77461 | -3 ft | 6 kts | 156° |
| 2026-05-07 10:42 | 52.30765 | 4.77462 | -3 ft | 10 kts | 181° |
| 2026-05-07 10:43 | 52.30676 | 4.77452 | -3 ft | 15 kts | 189° |
| 2026-05-07 10:43 | 52.30602 | 4.77323 | -4 ft | 16 kts | 238° |
| 2026-05-07 10:43 | 52.30544 | 4.77168 | -4 ft | 16 kts | 238° |
| 2026-05-07 10:43 | 52.30487 | 4.77021 | -4 ft | 15 kts | 237° |
| 2026-05-07 10:44 | 52.30433 | 4.76880 | -4 ft | 14 kts | 238° |
| 2026-05-07 10:44 | 52.30380 | 4.76742 | -4 ft | 15 kts | 238° |
| 2026-05-07 10:44 | 52.30322 | 4.76589 | -3 ft | 17 kts | 237° |
| 2026-05-07 10:44 | 52.30255 | 4.76416 | -3 ft | 19 kts | 238° |
| 2026-05-07 10:45 | 52.30179 | 4.76218 | -3 ft | 21 kts | 238° |
| 2026-05-07 10:45 | 52.30097 | 4.76005 | -4 ft | 23 kts | 239° |
| 2026-05-07 10:45 | 52.30010 | 4.75779 | -4 ft | 25 kts | 238° |
| 2026-05-07 10:45 | 52.29921 | 4.75545 | -3 ft | 24 kts | 237° |
| 2026-05-07 10:46 | 52.29846 | 4.75346 | -3 ft | 18 kts | 243° |
| 2026-05-07 10:46 | 52.29861 | 4.75157 | -3 ft | 18 kts | 308° |
| 2026-05-07 10:46 | 52.29941 | 4.75009 | -3 ft | 17 kts | 310° |
| 2026-05-07 10:46 | 52.30018 | 4.74866 | -4 ft | 16 kts | 312° |
| 2026-05-07 10:47 | 52.30092 | 4.74728 | -3 ft | 16 kts | 311° |
| 2026-05-07 10:47 | 52.30167 | 4.74589 | -3 ft | 17 kts | 312° |
| 2026-05-07 10:47 | 52.30253 | 4.74428 | -3 ft | 21 kts | 311° |
| 2026-05-07 10:47 | 52.30332 | 4.74272 | -3 ft | 11 kts | 298° |
| 2026-05-07 10:48 | 52.30341 | 4.74227 | -3 ft | 6 kts | 282° |
| 2026-05-07 10:48 | 52.30337 | 4.74114 | -3 ft | 14 kts | 256° |
| 2026-05-07 10:48 | 52.30274 | 4.73987 | -3 ft | 13 kts | 219° |
| 2026-05-07 10:48 | 52.30207 | 4.73894 | -5 ft | 13 kts | 225° |
| 2026-05-07 10:49 | 52.30201 | 4.73765 | -4 ft | 13 kts | 316° |
| 2026-05-07 10:49 | 52.30294 | 4.73745 | -8 ft | 15 kts | 1° |
| 2026-05-07 10:49 | 52.30589 | 4.73770 | -7 ft | 79 kts | 2° |
| 2026-05-07 10:49 | 52.31350 | 4.73840 | -3 ft | 138 kts | 3° |
| 2026-05-07 10:50 | 52.32408 | 4.73940 | 324 ft | 157 kts | 4° |
| 2026-05-07 10:50 | 52.33532 | 4.74076 | 903 ft | 171 kts | 5° |
| 2026-05-07 10:50 | 52.34775 | 4.74265 | 1428 ft | 185 kts | 5° |
| 2026-05-07 10:50 | 52.36098 | 4.74075 | 1918 ft | 207 kts | 340° |
| 2026-05-07 10:51 | 52.37298 | 4.72567 | 2358 ft | 231 kts | 306° |
| 2026-05-07 10:51 | 52.37832 | 4.70064 | 3051 ft | 241 kts | 271° |
| 2026-05-07 10:51 | 52.37430 | 4.67394 | 3829 ft | 245 kts | 246° |
| 2026-05-07 10:51 | 52.36677 | 4.64895 | 4685 ft | 246 kts | 244° |
| 2026-05-07 10:52 | 52.35877 | 4.62412 | 5515 ft | 246 kts | 243° |
| 2026-05-07 10:52 | 52.35070 | 4.59934 | 6397 ft | 247 kts | 242° |
| 2026-05-07 10:52 | 52.34263 | 4.57438 | 7222 ft | 250 kts | 242° |
| 2026-05-07 10:52 | 52.33446 | 4.54898 | 8050 ft | 253 kts | 242° |
| 2026-05-07 10:53 | 52.32622 | 4.52324 | 8854 ft | 263 kts | 242° |
| 2026-05-07 10:53 | 52.31741 | 4.49562 | 9602 ft | 279 kts | 242° |
| 2026-05-07 10:53 | 52.30849 | 4.46754 | 10499 ft | 288 kts | 242° |
| 2026-05-07 10:53 | 52.29879 | 4.43698 | 10851 ft | 318 kts | 243° |
| 2026-05-07 10:54 | 52.28740 | 4.40106 | 11217 ft | 345 kts | 243° |
| 2026-05-07 10:54 | 52.27721 | 4.36892 | 11979 ft | 352 kts | 243° |
| 2026-05-07 10:54 | 52.26571 | 4.33267 | 13002 ft | 355 kts | 243° |
| 2026-05-07 10:54 | 52.25438 | 4.29698 | 13970 ft | 361 kts | 243° |
| 2026-05-07 10:55 | 52.24273 | 4.26031 | 14838 ft | 367 kts | 243° |
| 2026-05-07 10:55 | 52.23098 | 4.22338 | 15815 ft | 370 kts | 243° |
| 2026-05-07 10:55 | 52.21906 | 4.18598 | 16810 ft | 373 kts | 243° |
| 2026-05-07 10:55 | 52.20698 | 4.14812 | 17729 ft | 378 kts | 243° |
| 2026-05-07 10:56 | 52.19474 | 4.10982 | 18557 ft | 384 kts | 243° |
| 2026-05-07 10:56 | 52.18232 | 4.07101 | 19373 ft | 387 kts | 243° |
| 2026-05-07 10:56 | 52.16981 | 4.03201 | 20218 ft | 390 kts | 243° |
| 2026-05-07 10:56 | 52.15711 | 3.99244 | 20936 ft | 396 kts | 242° |
| 2026-05-07 10:57 | 52.14423 | 3.95241 | 21674 ft | 401 kts | 242° |
| 2026-05-07 10:57 | 52.13117 | 3.91187 | 22487 ft | 404 kts | 242° |
| 2026-05-07 10:57 | 52.11806 | 3.87123 | 23226 ft | 409 kts | 242° |
| 2026-05-07 10:57 | 52.10470 | 3.82990 | 23823 ft | 415 kts | 242° |
| 2026-05-07 10:58 | 52.09133 | 3.78858 | 24074 ft | 414 kts | 242° |
| 2026-05-07 10:58 | 52.07783 | 3.74696 | 24079 ft | 417 kts | 242° |
| 2026-05-07 10:58 | 52.06444 | 3.70574 | 24083 ft | 418 kts | 242° |
| 2026-05-07 10:58 | 52.05086 | 3.66398 | 24089 ft | 417 kts | 242° |
| 2026-05-07 10:59 | 52.03731 | 3.62242 | 24079 ft | 415 kts | 242° |
| 2026-05-07 10:59 | 52.02379 | 3.58106 | 24076 ft | 415 kts | 242° |
| 2026-05-07 10:59 | 52.01025 | 3.53965 | 24077 ft | 415 kts | 242° |
| 2026-05-07 10:59 | 51.99662 | 3.49837 | 24089 ft | 415 kts | 240° |
| 2026-05-07 11:00 | 51.98079 | 3.45916 | 24088 ft | 415 kts | 234° |
| 2026-05-07 11:00 | 51.96363 | 3.42160 | 24083 ft | 416 kts | 233° |
| 2026-05-07 11:00 | 51.94613 | 3.38416 | 24083 ft | 417 kts | 233° |
| 2026-05-07 11:00 | 51.92869 | 3.34666 | 24086 ft | 417 kts | 233° |
| 2026-05-07 11:01 | 51.91131 | 3.30888 | 24099 ft | 418 kts | 233° |
| 2026-05-07 11:01 | 51.89409 | 3.27110 | 24096 ft | 418 kts | 233° |
| 2026-05-07 11:01 | 51.87681 | 3.23308 | 24094 ft | 418 kts | 233° |
| 2026-05-07 11:01 | 51.85960 | 3.19530 | 24087 ft | 418 kts | 233° |
| 2026-05-07 11:02 | 51.84323 | 3.15637 | 24084 ft | 418 kts | 240° |
| 2026-05-07 11:02 | 51.82972 | 3.11487 | 24092 ft | 417 kts | 243° |
| 2026-05-07 11:02 | 51.81681 | 3.07281 | 24089 ft | 418 kts | 244° |
| 2026-05-07 11:02 | 51.80393 | 3.03056 | 24090 ft | 419 kts | 243° |
| 2026-05-07 11:03 | 51.79080 | 2.98794 | 24096 ft | 427 kts | 243° |
| 2026-05-07 11:03 | 51.77737 | 2.94491 | 24096 ft | 430 kts | 243° |
| 2026-05-07 11:03 | 51.76383 | 2.90195 | 24080 ft | 427 kts | 243° |
| 2026-05-07 11:03 | 51.75031 | 2.85932 | 24082 ft | 425 kts | 243° |
| 2026-05-07 11:04 | 51.73683 | 2.81693 | 24083 ft | 424 kts | 243° |
| 2026-05-07 11:04 | 51.72350 | 2.77505 | 24085 ft | 424 kts | 243° |
| 2026-05-07 11:04 | 51.70998 | 2.73269 | 24089 ft | 424 kts | 243° |
| 2026-05-07 11:04 | 51.69678 | 2.69006 | 24085 ft | 425 kts | 246° |
| 2026-05-07 11:05 | 51.68701 | 2.64504 | 24087 ft | 426 kts | 255° |
| 2026-05-07 11:05 | 51.68186 | 2.59801 | 24088 ft | 427 kts | 262° |
| 2026-05-07 11:05 | 51.67813 | 2.55055 | 24086 ft | 427 kts | 262° |
| 2026-05-07 11:05 | 51.67421 | 2.50296 | 24081 ft | 428 kts | 262° |
| 2026-05-07 11:06 | 51.67001 | 2.45543 | 24079 ft | 428 kts | 261° |
| 2026-05-07 11:06 | 51.66559 | 2.40809 | 24082 ft | 428 kts | 261° |
| 2026-05-07 11:06 | 51.66111 | 2.36098 | 24081 ft | 428 kts | 261° |
| 2026-05-07 11:06 | 51.65656 | 2.31326 | 24084 ft | 428 kts | 261° |
| 2026-05-07 11:07 | 51.65205 | 2.26586 | 24084 ft | 428 kts | 261° |
| 2026-05-07 11:07 | 51.64754 | 2.21838 | 24084 ft | 428 kts | 261° |
| 2026-05-07 11:07 | 51.64304 | 2.17108 | 24084 ft | 428 kts | 261° |
| 2026-05-07 11:07 | 51.63851 | 2.12369 | 24085 ft | 428 kts | 261° |
| 2026-05-07 11:08 | 51.63404 | 2.07623 | 24087 ft | 428 kts | 261° |
| 2026-05-07 11:08 | 51.62979 | 2.02884 | 24085 ft | 428 kts | 261° |
| 2026-05-07 11:08 | 51.62559 | 1.98192 | 24084 ft | 428 kts | 261° |
| 2026-05-07 11:08 | 51.62129 | 1.93455 | 24088 ft | 428 kts | 261° |
| 2026-05-07 11:09 | 51.61639 | 1.88738 | 24080 ft | 427 kts | 256° |
| 2026-05-07 11:09 | 51.60689 | 1.84217 | 23763 ft | 428 kts | 245° |
| 2026-05-07 11:09 | 51.59241 | 1.80043 | 22978 ft | 423 kts | 235° |
| 2026-05-07 11:09 | 51.57395 | 1.76421 | 22153 ft | 415 kts | 228° |
| 2026-05-07 11:10 | 51.55461 | 1.73020 | 21311 ft | 409 kts | 227° |
| 2026-05-07 11:10 | 51.53566 | 1.69658 | 20540 ft | 402 kts | 228° |
| 2026-05-07 11:10 | 51.51715 | 1.66324 | 19765 ft | 397 kts | 229° |
| 2026-05-07 11:10 | 51.49897 | 1.63020 | 19009 ft | 392 kts | 229° |
| 2026-05-07 11:11 | 51.48392 | 1.59408 | 18219 ft | 389 kts | 246° |
| 2026-05-07 11:11 | 51.47467 | 1.55360 | 17415 ft | 383 kts | 251° |
| 2026-05-07 11:11 | 51.46610 | 1.51389 | 16644 ft | 379 kts | 250° |
| 2026-05-07 11:11 | 51.45730 | 1.47431 | 15899 ft | 374 kts | 250° |
| 2026-05-07 11:12 | 51.44839 | 1.43530 | 15170 ft | 370 kts | 250° |
| 2026-05-07 11:12 | 51.43924 | 1.39698 | 14442 ft | 367 kts | 245° |
| 2026-05-07 11:12 | 51.42472 | 1.36396 | 14023 ft | 357 kts | 225° |
| 2026-05-07 11:12 | 51.40600 | 1.33830 | 13821 ft | 355 kts | 218° |
| 2026-05-07 11:13 | 51.38585 | 1.31444 | 13633 ft | 365 kts | 216° |
| 2026-05-07 11:13 | 51.36506 | 1.29066 | 13407 ft | 368 kts | 216° |
| 2026-05-07 11:13 | 51.34424 | 1.26687 | 13206 ft | 366 kts | 216° |
| 2026-05-07 11:13 | 51.32367 | 1.24315 | 12996 ft | 364 kts | 216° |
| 2026-05-07 11:14 | 51.30319 | 1.21933 | 12815 ft | 362 kts | 216° |
| 2026-05-07 11:14 | 51.28292 | 1.19562 | 12626 ft | 361 kts | 217° |
| 2026-05-07 11:14 | 51.26265 | 1.17183 | 12440 ft | 360 kts | 217° |
| 2026-05-07 11:14 | 51.24249 | 1.14815 | 12257 ft | 360 kts | 217° |
| 2026-05-07 11:15 | 51.22235 | 1.12448 | 12068 ft | 359 kts | 217° |
| 2026-05-07 11:15 | 51.20217 | 1.10080 | 11887 ft | 359 kts | 217° |
| 2026-05-07 11:15 | 51.18210 | 1.07727 | 11702 ft | 358 kts | 217° |
| 2026-05-07 11:15 | 51.16197 | 1.05368 | 11521 ft | 358 kts | 217° |
| 2026-05-07 11:16 | 51.14190 | 1.03019 | 11334 ft | 358 kts | 216° |
| 2026-05-07 11:16 | 51.12212 | 1.00707 | 11149 ft | 357 kts | 216° |
| 2026-05-07 11:16 | 51.10180 | 0.98335 | 10958 ft | 356 kts | 216° |
| 2026-05-07 11:16 | 51.08218 | 0.96049 | 10784 ft | 353 kts | 216° |
| 2026-05-07 11:17 | 51.06301 | 0.93704 | 10544 ft | 338 kts | 224° |
| 2026-05-07 11:17 | 51.04950 | 0.90784 | 10366 ft | 321 kts | 242° |
| 2026-05-07 11:17 | 51.04009 | 0.87696 | 10198 ft | 306 kts | 245° |
| 2026-05-07 11:17 | 51.03142 | 0.84689 | 10033 ft | 293 kts | 245° |
| 2026-05-07 11:18 | 51.02319 | 0.81832 | 9971 ft | 277 kts | 245° |
| 2026-05-07 11:18 | 51.01515 | 0.79081 | 9737 ft | 271 kts | 245° |
| 2026-05-07 11:18 | 51.00718 | 0.76385 | 9584 ft | 269 kts | 244° |
| 2026-05-07 11:18 | 50.99913 | 0.73684 | 9433 ft | 270 kts | 244° |
| 2026-05-07 11:19 | 50.99105 | 0.70987 | 9282 ft | 272 kts | 244° |
| 2026-05-07 11:19 | 50.98295 | 0.68292 | 9149 ft | 274 kts | 244° |
| 2026-05-07 11:19 | 50.97480 | 0.65582 | 8989 ft | 273 kts | 244° |
| 2026-05-07 11:19 | 50.96661 | 0.62861 | 8846 ft | 273 kts | 244° |
| 2026-05-07 11:20 | 50.95842 | 0.60146 | 8702 ft | 273 kts | 244° |
| 2026-05-07 11:20 | 50.95290 | 0.58315 | 8606 ft | 272 kts | 244° |
| 2026-05-07 11:20 | 50.94474 | 0.55609 | 8461 ft | 272 kts | 244° |
| 2026-05-07 11:20 | 50.93659 | 0.52910 | 8317 ft | 271 kts | 244° |
| 2026-05-07 11:21 | 50.92846 | 0.50228 | 8176 ft | 268 kts | 244° |
| 2026-05-07 11:21 | 50.92044 | 0.47580 | 8048 ft | 265 kts | 244° |
| 2026-05-07 11:21 | 50.91435 | 0.44888 | 7887 ft | 265 kts | 264° |
| 2026-05-07 11:21 | 50.91595 | 0.42009 | 7784 ft | 263 kts | 284° |
| 2026-05-07 11:22 | 50.92107 | 0.39226 | 7648 ft | 263 kts | 286° |
| 2026-05-07 11:22 | 50.92645 | 0.36450 | 7507 ft | 264 kts | 286° |
| 2026-05-07 11:22 | 50.93172 | 0.33668 | 7362 ft | 264 kts | 285° |
| 2026-05-07 11:22 | 50.93554 | 0.30893 | 7221 ft | 263 kts | 275° |
| 2026-05-07 11:23 | 50.93666 | 0.28054 | 7080 ft | 253 kts | 272° |
| 2026-05-07 11:23 | 50.93726 | 0.25329 | 6965 ft | 242 kts | 271° |
| 2026-05-07 11:23 | 50.93779 | 0.22674 | 6811 ft | 235 kts | 271° |
| 2026-05-07 11:23 | 50.93829 | 0.20099 | 6686 ft | 233 kts | 271° |
| 2026-05-07 11:24 | 50.93877 | 0.17521 | 6536 ft | 236 kts | 271° |
| 2026-05-07 11:24 | 50.93924 | 0.14905 | 6373 ft | 237 kts | 271° |
| 2026-05-07 11:24 | 50.93970 | 0.12306 | 6232 ft | 235 kts | 271° |
| 2026-05-07 11:24 | 50.94017 | 0.09725 | 6094 ft | 233 kts | 271° |
| 2026-05-07 11:25 | 50.94063 | 0.07170 | 5974 ft | 231 kts | 271° |
| 2026-05-07 11:25 | 50.94108 | 0.04662 | 5850 ft | 230 kts | 271° |
| 2026-05-07 11:25 | 50.94154 | 0.02103 | 5730 ft | 229 kts | 271° |
| 2026-05-07 11:25 | 50.94201 | -0.00416 | 5626 ft | 228 kts | 271° |
| 2026-05-07 11:26 | 50.94244 | -0.02929 | 5507 ft | 228 kts | 271° |
| 2026-05-07 11:26 | 50.94280 | -0.05416 | 5373 ft | 222 kts | 271° |
| 2026-05-07 11:26 | 50.94311 | -0.07828 | 5258 ft | 217 kts | 271° |
| 2026-05-07 11:26 | 50.94340 | -0.10256 | 5154 ft | 218 kts | 271° |
| 2026-05-07 11:27 | 50.94369 | -0.12709 | 5044 ft | 219 kts | 271° |
| 2026-05-07 11:27 | 50.94396 | -0.15103 | 4943 ft | 220 kts | 271° |
| 2026-05-07 11:27 | 50.94423 | -0.17562 | 4839 ft | 221 kts | 271° |
| 2026-05-07 11:27 | 50.94450 | -0.20034 | 4740 ft | 226 kts | 271° |
| 2026-05-07 11:28 | 50.94478 | -0.22558 | 4633 ft | 230 kts | 271° |
| 2026-05-07 11:28 | 50.94505 | -0.25100 | 4521 ft | 231 kts | 271° |
| 2026-05-07 11:28 | 50.94531 | -0.27627 | 4433 ft | 229 kts | 271° |
| 2026-05-07 11:28 | 50.94557 | -0.30156 | 4355 ft | 228 kts | 271° |
| 2026-05-07 11:29 | 50.94584 | -0.32712 | 4266 ft | 227 kts | 271° |
| 2026-05-07 11:29 | 50.94611 | -0.35202 | 4194 ft | 225 kts | 271° |
| 2026-05-07 11:29 | 50.94637 | -0.37686 | 4092 ft | 227 kts | 271° |
| 2026-05-07 11:29 | 50.94663 | -0.40196 | 4020 ft | 227 kts | 271° |
| 2026-05-07 11:30 | 50.94688 | -0.42766 | 4000 ft | 225 kts | 271° |
| 2026-05-07 11:30 | 50.94712 | -0.45191 | 4003 ft | 226 kts | 271° |
| 2026-05-07 11:30 | 50.94737 | -0.47704 | 4002 ft | 227 kts | 271° |
| 2026-05-07 11:30 | 50.95020 | -0.50142 | 3988 ft | 228 kts | 297° |
| 2026-05-07 11:31 | 50.96081 | -0.51981 | 4000 ft | 228 kts | 329° |
| 2026-05-07 11:31 | 50.97600 | -0.52631 | 4010 ft | 229 kts | 357° |
| 2026-05-07 11:31 | 50.99201 | -0.52629 | 4003 ft | 230 kts | 0° |
| 2026-05-07 11:31 | 51.00778 | -0.52564 | 3981 ft | 221 kts | 0° |
| 2026-05-07 11:32 | 51.03770 | -0.52420 | 3628 ft | 214 kts | 1° |
| 2026-05-07 11:32 | 51.05237 | -0.52348 | 3492 ft | 204 kts | 0° |
| 2026-05-07 11:32 | 51.06633 | -0.52276 | 3399 ft | 198 kts | 1° |
| 2026-05-07 11:33 | 51.08000 | -0.52210 | 3309 ft | 196 kts | 1° |
| 2026-05-07 11:33 | 51.09350 | -0.52006 | 3251 ft | 196 kts | 19° |
| 2026-05-07 11:33 | 51.10335 | -0.50577 | 3229 ft | 198 kts | 65° |
| 2026-05-07 11:33 | 51.10725 | -0.48453 | 3145 ft | 202 kts | 76° |
| 2026-05-07 11:34 | 51.11061 | -0.46281 | 3023 ft | 201 kts | 77° |
| 2026-05-07 11:34 | 51.11364 | -0.44143 | 2997 ft | 196 kts | 78° |
| 2026-05-07 11:34 | 51.11656 | -0.42016 | 2932 ft | 199 kts | 78° |
| 2026-05-07 11:34 | 51.11954 | -0.39828 | 2696 ft | 203 kts | 78° |
| 2026-05-07 11:35 | 51.12249 | -0.37668 | 2417 ft | 196 kts | 78° |
| 2026-05-07 11:35 | 51.12535 | -0.35580 | 2163 ft | 193 kts | 78° |
| 2026-05-07 11:35 | 51.12822 | -0.33488 | 1901 ft | 193 kts | 78° |
| 2026-05-07 11:35 | 51.13107 | -0.31419 | 1624 ft | 185 kts | 78° |
| 2026-05-07 11:36 | 51.13371 | -0.29500 | 1391 ft | 170 kts | 78° |
| 2026-05-07 11:36 | 51.13607 | -0.27789 | 1169 ft | 149 kts | 78° |
| 2026-05-07 11:36 | 51.13802 | -0.26381 | 969 ft | 134 kts | 78° |
| 2026-05-07 11:36 | 51.13991 | -0.25005 | 803 ft | 124 kts | 78° |
| 2026-05-07 11:37 | 51.14175 | -0.23678 | 641 ft | 124 kts | 78° |
| 2026-05-07 11:37 | 51.14360 | -0.22349 | 462 ft | 123 kts | 79° |
| 2026-05-07 11:37 | 51.14536 | -0.21045 | 285 ft | 120 kts | 77° |
| 2026-05-07 11:37 | 51.14713 | -0.19770 | 209 ft | 111 kts | 75° |
| 2026-05-07 11:38 | 51.14844 | -0.18821 | 211 ft | 66 kts | 78° |
| 2026-05-07 11:38 | 51.14913 | -0.18327 | 206 ft | 37 kts | 77° |
| 2026-05-07 11:38 | 51.14984 | -0.17966 | 210 ft | 23 kts | 62° |
| 2026-05-07 11:38 | 51.15070 | -0.17779 | 206 ft | 18 kts | 44° |
| 2026-05-07 11:39 | 51.15193 | -0.17777 | 204 ft | 15 kts | 352° |
| 2026-05-07 11:39 | 51.15256 | -0.17764 | 212 ft | 9 kts | 59° |
| 2026-05-07 11:39 | 51.15272 | -0.17666 | 204 ft | 9 kts | 79° |
| 2026-05-07 11:39 | 51.15286 | -0.17564 | 204 ft | 11 kts | 77° |
| 2026-05-07 11:40 | 51.15298 | -0.17459 | 208 ft | 9 kts | 81° |
| 2026-05-07 11:40 | 51.15306 | -0.17339 | 212 ft | 13 kts | 85° |
| 2026-05-07 11:40 | 51.15348 | -0.17248 | 207 ft | 10 kts | 357° |
| 2026-05-07 11:40 | 51.15396 | -0.17166 | 214 ft | 13 kts | 63° |
| 2026-05-07 11:41 | 51.15421 | -0.17025 | 210 ft | 14 kts | 78° |
| 2026-05-07 11:41 | 51.15442 | -0.16887 | 204 ft | 12 kts | 79° |
| 2026-05-07 11:41 | 51.15457 | -0.16786 | 204 ft | 7 kts | 66° |
| 2026-05-07 11:41 | 51.15492 | -0.16777 | 204 ft | 5 kts | 342° |
| 2026-05-07 11:42 | 51.15499 | -0.16780 | 204 ft | 0 kts | 347° |
| 2026-05-07 11:42 | 51.15503 | -0.16781 | 204 ft | 2 kts | 347° |
| 2026-05-07 11:42 | 51.15506 | -0.16782 | 207 ft | 0 kts | 346° |